createdAt,value
2018-07-03T00:00:21.179Z,0.00
2018-07-03T00:00:59.068Z,0.00
2018-07-03T00:01:34.176Z,0.00
2018-07-03T00:02:12.604Z,0.00
2018-07-03T00:02:47.803Z,0.00
2018-07-03T00:03:23.311Z,0.00
2018-07-03T00:03:58.706Z,0.00
2018-07-03T00:04:34.120Z,0.00
2018-07-03T00:05:10.055Z,0.00
2018-07-03T00:05:46.299Z,0.00
2018-07-03T00:06:21.785Z,0.00
2018-07-03T00:06:56.878Z,0.00
2018-07-03T00:07:32.406Z,0.00
2018-07-03T00:08:07.779Z,0.00
2018-07-03T00:08:43.510Z,0.00
2018-07-03T00:09:18.687Z,0.00
2018-07-03T00:09:54.090Z,0.00
2018-07-03T00:10:29.430Z,0.00
2018-07-03T00:11:04.832Z,0.00
2018-07-03T00:11:40.439Z,0.00
2018-07-03T00:12:15.648Z,0.00
2018-07-03T00:12:50.931Z,0.00
2018-07-03T00:13:27.055Z,0.00
2018-07-03T00:14:02.465Z,0.00
2018-07-03T00:14:37.860Z,0.00
2018-07-03T00:15:13.168Z,0.00
2018-07-03T00:15:48.994Z,0.00
2018-07-03T00:16:24.203Z,0.00
2018-07-03T00:16:59.395Z,0.00
2018-07-03T00:17:34.561Z,0.00
2018-07-03T00:18:13.089Z,0.00
2018-07-03T00:18:48.265Z,0.00
2018-07-03T00:19:23.506Z,0.00
2018-07-03T00:19:58.822Z,0.00
2018-07-03T00:20:34.359Z,0.00
2018-07-03T00:21:09.687Z,0.00
2018-07-03T00:21:44.886Z,0.00
2018-07-03T00:22:20.109Z,0.00
2018-07-03T00:22:55.598Z,0.00
2018-07-03T00:23:31.478Z,0.00
2018-07-03T00:24:06.918Z,0.00
2018-07-03T00:24:42.349Z,0.00
2018-07-03T00:25:17.667Z,0.00
2018-07-03T00:25:52.931Z,0.00
2018-07-03T00:26:28.033Z,0.00
2018-07-03T00:27:03.164Z,0.00
2018-07-03T00:27:38.450Z,0.00
2018-07-03T00:28:13.880Z,0.00
2018-07-03T00:28:49.282Z,0.00
2018-07-03T00:29:24.585Z,0.00
2018-07-03T00:30:00.512Z,0.00
2018-07-03T00:30:35.908Z,0.00
2018-07-03T00:31:11.244Z,0.00
2018-07-03T00:31:46.455Z,0.00
2018-07-03T00:32:21.778Z,0.00
2018-07-03T00:32:57.066Z,0.00
2018-07-03T00:33:32.394Z,0.00
2018-07-03T00:34:07.909Z,0.00
2018-07-03T00:34:44.002Z,0.00
2018-07-03T00:35:19.419Z,0.00
2018-07-03T00:35:54.730Z,0.00
2018-07-03T00:36:30.542Z,0.00
2018-07-03T00:37:05.866Z,0.00
2018-07-03T00:37:41.352Z,0.00
2018-07-03T00:38:16.943Z,0.00
2018-07-03T00:38:52.317Z,0.00
2018-07-03T00:39:27.840Z,0.00
2018-07-03T00:40:03.258Z,0.00
2018-07-03T00:40:38.845Z,0.00
2018-07-03T00:41:13.976Z,0.00
2018-07-03T00:41:49.356Z,0.00
2018-07-03T00:42:24.890Z,0.00
2018-07-03T00:43:00.479Z,0.00
2018-07-03T00:43:35.872Z,0.00
2018-07-03T00:44:11.086Z,0.00
2018-07-03T00:44:46.371Z,0.00
2018-07-03T00:45:21.977Z,0.00
2018-07-03T00:45:57.210Z,0.00
2018-07-03T00:46:32.538Z,0.00
2018-07-03T00:47:08.259Z,0.00
2018-07-03T00:47:43.463Z,0.00
2018-07-03T00:48:18.895Z,0.00
2018-07-03T00:48:54.267Z,0.00
2018-07-03T00:49:29.580Z,0.00
2018-07-03T00:50:04.907Z,0.00
2018-07-03T00:50:40.210Z,0.00
2018-07-03T00:51:15.351Z,0.00
2018-07-03T00:51:50.737Z,0.00
2018-07-03T00:52:26.325Z,0.00
2018-07-03T00:53:01.908Z,0.00
2018-07-03T00:53:37.229Z,0.00
2018-07-03T00:54:12.325Z,0.00
2018-07-03T00:54:47.719Z,0.00
2018-07-03T00:55:23.336Z,0.00
2018-07-03T00:55:58.848Z,0.00
2018-07-03T00:56:33.960Z,0.00
2018-07-03T00:57:09.195Z,0.00
2018-07-03T00:57:44.300Z,0.00
2018-07-03T00:58:20.212Z,0.00
2018-07-03T00:58:55.537Z,0.00
2018-07-03T00:59:30.827Z,0.00
2018-07-03T01:00:06.049Z,0.00
2018-07-03T01:00:42.740Z,0.00
2018-07-03T01:01:18.206Z,0.00
2018-07-03T01:01:53.693Z,0.00
2018-07-03T01:02:29.302Z,0.00
2018-07-03T01:05:08.857Z,0.00
2018-07-03T01:05:45.799Z,0.00
2018-07-03T01:06:21.224Z,0.00
2018-07-03T01:06:56.798Z,0.00
2018-07-03T01:07:32.205Z,0.00
2018-07-03T01:08:07.840Z,0.00
2018-07-03T01:08:43.024Z,0.00
2018-07-03T01:09:18.319Z,0.00
2018-07-03T01:09:53.700Z,0.00
2018-07-03T01:10:29.109Z,0.00
2018-07-03T01:11:04.506Z,0.00
2018-07-03T01:11:40.710Z,0.00
2018-07-03T01:12:15.826Z,0.00
2018-07-03T01:12:51.205Z,0.00
2018-07-03T01:13:26.710Z,0.00
2018-07-03T01:14:02.099Z,0.00
2018-07-03T01:14:37.604Z,0.00
2018-07-03T01:15:12.890Z,0.00
2018-07-03T01:15:51.755Z,0.00
2018-07-03T01:18:28.185Z,0.00
2018-07-03T01:19:03.819Z,0.00
2018-07-03T01:19:40.944Z,0.00
2018-07-03T01:20:16.091Z,0.00
2018-07-03T01:20:51.452Z,0.00
2018-07-03T01:21:26.887Z,0.00
2018-07-03T01:22:01.979Z,0.00
2018-07-03T01:22:37.589Z,0.00
2018-07-03T01:23:12.962Z,0.00
2018-07-03T01:23:48.459Z,0.00
2018-07-03T01:24:23.767Z,0.00
2018-07-03T01:24:59.384Z,0.00
2018-07-03T01:25:34.581Z,0.00
2018-07-03T01:26:09.867Z,0.00
2018-07-03T01:26:45.098Z,0.00
2018-07-03T01:27:20.186Z,0.00
2018-07-03T01:27:55.450Z,0.00
2018-07-03T01:28:30.775Z,0.00
2018-07-03T01:29:06.160Z,0.00
2018-07-03T01:29:41.245Z,0.00
2018-07-03T01:30:16.349Z,0.00
2018-07-03T01:30:51.644Z,0.00
2018-07-03T01:31:27.153Z,0.00
2018-07-03T01:32:02.732Z,0.00
2018-07-03T01:32:38.137Z,0.00
2018-07-03T01:33:13.512Z,0.00
2018-07-03T01:33:49.147Z,0.00
2018-07-03T01:34:24.459Z,0.00
2018-07-03T01:35:03.359Z,0.00
2018-07-03T01:35:38.653Z,0.00
2018-07-03T01:36:14.021Z,0.00
2018-07-03T01:36:49.474Z,0.00
2018-07-03T01:37:25.101Z,0.00
2018-07-03T01:38:00.180Z,0.00
2018-07-03T01:38:35.695Z,0.00
2018-07-03T01:39:10.778Z,0.00
2018-07-03T01:39:46.283Z,0.00
2018-07-03T01:40:21.676Z,0.00
2018-07-03T01:40:56.867Z,0.00
2018-07-03T01:41:32.122Z,0.00
2018-07-03T01:42:07.207Z,0.00
2018-07-03T01:42:43.110Z,0.00
2018-07-03T01:43:18.620Z,0.00
2018-07-03T01:43:53.916Z,0.00
2018-07-03T01:44:29.121Z,0.00
2018-07-03T01:45:04.301Z,0.00
2018-07-03T01:45:40.130Z,0.00
2018-07-03T01:46:15.653Z,0.00
2018-07-03T01:46:51.143Z,0.00
2018-07-03T01:47:26.575Z,0.00
2018-07-03T01:48:02.066Z,0.00
2018-07-03T01:48:37.159Z,0.00
2018-07-03T01:49:12.519Z,0.00
2018-07-03T01:49:47.933Z,0.00
2018-07-03T01:50:23.440Z,0.00
2018-07-03T01:50:59.568Z,0.00
2018-07-03T01:51:34.966Z,0.00
2018-07-03T01:52:10.262Z,0.00
2018-07-03T01:52:45.779Z,0.00
2018-07-03T01:53:21.084Z,0.00
2018-07-03T01:53:56.157Z,0.00
2018-07-03T01:54:31.367Z,0.00
2018-07-03T01:55:06.759Z,0.00
2018-07-03T01:55:42.278Z,0.00
2018-07-03T01:56:20.593Z,0.00
2018-07-03T01:56:55.908Z,0.00
2018-07-03T01:57:31.136Z,0.00
2018-07-03T01:58:06.840Z,0.00
2018-07-03T01:58:42.071Z,0.00
2018-07-03T01:59:17.426Z,0.00
2018-07-03T01:59:52.905Z,0.00
2018-07-03T02:00:28.217Z,0.00
2018-07-03T02:01:04.229Z,0.00
2018-07-03T02:01:39.527Z,0.00
2018-07-03T02:02:15.449Z,0.00
2018-07-03T02:02:50.846Z,0.00
2018-07-03T02:03:26.259Z,0.00
2018-07-03T02:04:01.849Z,0.00
2018-07-03T02:04:37.669Z,0.00
2018-07-03T02:05:12.978Z,0.00
2018-07-03T02:05:48.858Z,0.00
2018-07-03T02:06:24.280Z,0.00
2018-07-03T02:06:59.612Z,0.00
2018-07-03T02:09:37.251Z,0.00
2018-07-03T02:10:12.333Z,0.00
2018-07-03T02:10:48.946Z,0.00
2018-07-03T02:11:24.755Z,0.00
2018-07-03T02:12:00.148Z,0.00
2018-07-03T02:12:35.255Z,0.00
2018-07-03T02:13:10.632Z,0.00
2018-07-03T02:13:45.979Z,0.00
2018-07-03T02:14:21.364Z,0.00
2018-07-03T02:14:56.792Z,0.00
2018-07-03T02:15:32.103Z,0.00
2018-07-03T02:16:07.523Z,0.00
2018-07-03T02:16:43.245Z,0.00
2018-07-03T02:17:18.750Z,0.00
2018-07-03T02:17:54.173Z,0.00
2018-07-03T02:18:29.383Z,0.00
2018-07-03T02:19:04.852Z,0.00
2018-07-03T02:19:40.377Z,0.00
2018-07-03T02:20:15.653Z,0.00
2018-07-03T02:20:51.282Z,0.00
2018-07-03T02:21:27.889Z,0.00
2018-07-03T02:22:03.192Z,0.00
2018-07-03T02:22:39.445Z,0.00
2018-07-03T02:23:14.732Z,0.00
2018-07-03T02:23:50.237Z,0.00
2018-07-03T02:24:25.327Z,0.00
2018-07-03T02:25:00.811Z,0.00
2018-07-03T02:25:36.046Z,0.00
2018-07-03T02:26:11.535Z,0.00
2018-07-03T02:26:46.933Z,0.00
2018-07-03T02:27:22.252Z,0.00
2018-07-03T02:27:57.467Z,0.00
2018-07-03T02:28:32.779Z,0.00
2018-07-03T02:29:07.906Z,0.00
2018-07-03T02:29:43.412Z,0.00
2018-07-03T02:30:18.887Z,0.00
2018-07-03T02:30:56.819Z,0.00
2018-07-03T02:31:32.359Z,0.00
2018-07-03T02:32:07.598Z,0.00
2018-07-03T02:32:43.223Z,0.00
2018-07-03T02:33:18.438Z,0.00
2018-07-03T02:33:53.559Z,0.00
2018-07-03T02:34:28.770Z,0.00
2018-07-03T02:35:03.836Z,0.00
2018-07-03T02:35:39.938Z,0.00
2018-07-03T02:36:15.528Z,0.00
2018-07-03T02:36:50.739Z,0.00
2018-07-03T02:37:26.010Z,0.00
2018-07-03T02:38:01.430Z,0.00
2018-07-03T02:38:36.543Z,0.00
2018-07-03T02:39:11.731Z,0.00
2018-07-03T02:39:46.992Z,0.00
2018-07-03T02:43:01.602Z,0.00
2018-07-03T02:43:36.953Z,0.00
2018-07-03T02:44:12.365Z,0.00
2018-07-03T02:44:50.258Z,0.00
2018-07-03T02:45:25.756Z,0.00
2018-07-03T02:46:01.217Z,0.00
2018-07-03T02:46:36.721Z,0.00
2018-07-03T02:47:12.131Z,0.00
2018-07-03T02:47:47.848Z,0.00
2018-07-03T02:48:23.222Z,0.00
2018-07-03T02:48:58.598Z,0.00
2018-07-03T02:49:33.767Z,0.00
2018-07-03T02:50:09.052Z,0.00
2018-07-03T02:50:44.558Z,0.00
2018-07-03T02:51:19.964Z,0.00
2018-07-03T02:51:55.172Z,0.00
2018-07-03T02:52:30.601Z,0.00
2018-07-03T02:53:05.882Z,0.00
2018-07-03T02:53:41.101Z,0.00
2018-07-03T02:54:16.386Z,0.00
2018-07-03T02:54:51.886Z,0.00
2018-07-03T02:55:27.513Z,0.00
2018-07-03T02:56:02.894Z,0.00
2018-07-03T02:56:38.018Z,0.00
2018-07-03T02:57:13.591Z,0.00
2018-07-03T02:57:48.837Z,0.00
2018-07-03T02:58:24.470Z,0.00
2018-07-03T02:58:59.743Z,0.00
2018-07-03T02:59:34.959Z,0.00
2018-07-03T03:00:10.197Z,0.00
2018-07-03T03:00:45.545Z,0.00
2018-07-03T03:01:20.860Z,0.00
2018-07-03T03:01:56.504Z,0.00
2018-07-03T03:02:33.708Z,0.00
2018-07-03T03:03:10.222Z,0.00
2018-07-03T03:03:45.948Z,0.00
2018-07-03T03:04:21.335Z,0.00
2018-07-03T03:04:56.941Z,0.00
2018-07-03T03:05:32.218Z,0.00
2018-07-03T03:06:07.438Z,0.00
2018-07-03T03:06:43.112Z,0.00
2018-07-03T03:07:18.402Z,0.00
2018-07-03T03:07:53.743Z,0.00
2018-07-03T03:08:29.117Z,0.00
2018-07-03T03:09:04.430Z,0.00
2018-07-03T03:09:39.600Z,0.00
2018-07-03T03:10:14.912Z,0.00
2018-07-03T03:10:50.251Z,0.00
2018-07-03T03:11:25.844Z,0.00
2018-07-03T03:12:01.077Z,0.00
2018-07-03T03:12:36.419Z,0.00
2018-07-03T03:13:11.957Z,0.00
2018-07-03T03:13:47.296Z,0.00
2018-07-03T03:14:22.791Z,0.00
2018-07-03T03:14:58.318Z,0.00
2018-07-03T03:15:33.826Z,0.00
2018-07-03T03:16:09.123Z,0.00
2018-07-03T03:16:44.978Z,0.00
2018-07-03T03:17:20.291Z,0.00
2018-07-03T03:17:55.819Z,0.00
2018-07-03T03:18:31.011Z,0.00
2018-07-03T03:19:06.627Z,0.00
2018-07-03T03:19:41.711Z,0.00
2018-07-03T03:20:16.949Z,0.00
2018-07-03T03:20:53.565Z,0.00
2018-07-03T03:21:28.965Z,0.00
2018-07-03T03:22:04.194Z,0.00
2018-07-03T03:22:39.391Z,0.00
2018-07-03T03:25:17.673Z,0.00
2018-07-03T03:25:52.873Z,0.00
2018-07-03T03:26:28.277Z,0.00
2018-07-03T03:27:03.512Z,0.00
2018-07-03T03:27:38.980Z,0.00
2018-07-03T03:28:14.412Z,0.00
2018-07-03T03:28:49.934Z,0.00
2018-07-03T03:29:25.534Z,0.00
2018-07-03T03:30:00.882Z,0.00
2018-07-03T03:30:36.483Z,0.00
2018-07-03T03:31:11.994Z,0.00
2018-07-03T03:31:47.332Z,0.00
2018-07-03T03:32:23.139Z,0.00
2018-07-03T03:32:58.388Z,0.00
2018-07-03T03:33:33.770Z,0.00
2018-07-03T03:34:09.175Z,0.00
2018-07-03T03:34:44.385Z,0.00
2018-07-03T03:35:19.891Z,0.00
2018-07-03T03:35:55.009Z,0.00
2018-07-03T03:36:30.231Z,0.00
2018-07-03T03:37:05.750Z,0.00
2018-07-03T03:37:41.245Z,0.00
2018-07-03T03:38:16.592Z,0.00
2018-07-03T03:38:51.925Z,0.00
2018-07-03T03:39:27.296Z,0.00
2018-07-03T03:40:02.732Z,0.00
2018-07-03T03:40:38.320Z,0.00
2018-07-03T03:41:13.763Z,0.00
2018-07-03T03:41:49.269Z,0.00
2018-07-03T03:42:24.554Z,0.00
2018-07-03T03:42:59.913Z,0.00
2018-07-03T03:43:35.316Z,0.00
2018-07-03T03:44:10.629Z,0.00
2018-07-03T03:44:46.048Z,0.00
2018-07-03T03:45:21.450Z,0.00
2018-07-03T03:45:56.760Z,0.00
2018-07-03T03:46:31.957Z,0.00
2018-07-03T03:47:07.480Z,0.00
2018-07-03T03:47:43.069Z,0.00
2018-07-03T03:48:18.515Z,0.00
2018-07-03T03:48:54.065Z,0.00
2018-07-03T03:49:29.377Z,0.00
2018-07-03T03:50:04.781Z,0.00
2018-07-03T03:50:40.056Z,0.00
2018-07-03T03:51:15.373Z,0.00
2018-07-03T03:51:50.609Z,0.00
2018-07-03T03:52:26.318Z,0.00
2018-07-03T03:53:01.816Z,0.00
2018-07-03T03:53:37.227Z,0.00
2018-07-03T03:54:12.525Z,0.00
2018-07-03T03:54:47.735Z,0.00
2018-07-03T03:55:23.015Z,0.00
2018-07-03T03:55:58.427Z,0.00
2018-07-03T03:56:33.629Z,0.00
2018-07-03T03:57:09.044Z,0.00
2018-07-03T03:57:44.373Z,0.00
2018-07-03T03:58:19.896Z,0.00
2018-07-03T03:58:55.442Z,0.00
2018-07-03T03:59:30.932Z,0.00
2018-07-03T04:00:06.323Z,5.00
2018-07-03T04:00:41.496Z,5.00
2018-07-03T04:01:17.015Z,5.00
2018-07-03T04:01:53.317Z,5.00
2018-07-03T04:02:28.830Z,5.00
2018-07-03T04:03:05.259Z,5.00
2018-07-03T04:03:40.910Z,5.00
2018-07-03T04:04:16.250Z,5.00
2018-07-03T04:04:51.472Z,5.00
2018-07-03T04:05:26.945Z,5.00
2018-07-03T04:06:02.072Z,5.00
2018-07-03T04:06:37.258Z,5.00
2018-07-03T04:07:12.772Z,5.00
2018-07-03T04:07:48.146Z,5.00
2018-07-03T04:08:23.492Z,5.00
2018-07-03T04:08:58.713Z,5.00
2018-07-03T04:09:34.100Z,5.00
2018-07-03T04:10:09.299Z,5.00
2018-07-03T04:10:46.636Z,5.00
2018-07-03T04:11:22.179Z,5.00
2018-07-03T04:11:57.488Z,5.00
2018-07-03T04:12:32.959Z,5.00
2018-07-03T04:13:08.697Z,5.00
2018-07-03T04:13:43.809Z,5.00
2018-07-03T04:14:19.309Z,5.00
2018-07-03T04:14:54.730Z,5.00
2018-07-03T04:15:30.029Z,5.00
2018-07-03T04:16:05.743Z,5.00
2018-07-03T04:16:41.400Z,5.00
2018-07-03T04:17:20.051Z,5.00
2018-07-03T04:17:55.473Z,5.00
2018-07-03T04:18:30.731Z,5.00
2018-07-03T04:19:06.257Z,5.00
2018-07-03T04:19:41.846Z,5.00
2018-07-03T04:20:17.267Z,5.00
2018-07-03T04:20:52.488Z,5.00
2018-07-03T04:21:28.122Z,5.00
2018-07-03T04:22:03.724Z,5.00
2018-07-03T04:22:39.216Z,5.00
2018-07-03T04:23:14.738Z,5.00
2018-07-03T04:23:49.849Z,5.00
2018-07-03T04:24:25.396Z,5.00
2018-07-03T04:25:00.875Z,5.00
2018-07-03T04:25:35.963Z,5.00
2018-07-03T04:26:11.504Z,5.00
2018-07-03T04:26:46.922Z,5.00
2018-07-03T04:27:22.352Z,5.00
2018-07-03T04:27:57.768Z,5.00
2018-07-03T04:28:33.143Z,5.00
2018-07-03T04:29:08.491Z,5.00
2018-07-03T04:29:43.677Z,5.00
2018-07-03T04:30:19.100Z,5.00
2018-07-03T04:30:54.955Z,5.00
2018-07-03T04:31:30.261Z,5.00
2018-07-03T04:32:05.762Z,5.00
2018-07-03T04:32:41.274Z,5.00
2018-07-03T04:33:16.385Z,5.00
2018-07-03T04:33:51.607Z,5.00
2018-07-03T04:34:26.818Z,5.00
2018-07-03T04:35:02.234Z,5.00
2018-07-03T04:35:37.657Z,5.00
2018-07-03T04:36:12.894Z,5.00
2018-07-03T04:36:48.208Z,5.00
2018-07-03T04:37:23.734Z,5.00
2018-07-03T04:37:59.426Z,5.00
2018-07-03T04:38:34.758Z,5.00
2018-07-03T04:39:13.425Z,5.00
2018-07-03T04:39:49.010Z,5.00
2018-07-03T04:40:24.322Z,5.00
2018-07-03T04:40:59.945Z,5.00
2018-07-03T04:41:35.458Z,5.00
2018-07-03T04:42:10.881Z,5.00
2018-07-03T04:42:47.175Z,5.00
2018-07-03T04:43:22.596Z,11.00
2018-07-03T04:43:58.004Z,11.00
2018-07-03T04:44:33.314Z,11.00
2018-07-03T04:45:08.764Z,11.00
2018-07-03T04:45:44.547Z,11.00
2018-07-03T04:46:19.932Z,11.00
2018-07-03T04:46:55.048Z,11.00
2018-07-03T04:47:30.453Z,11.00
2018-07-03T04:48:05.973Z,11.00
2018-07-03T04:48:41.583Z,11.00
2018-07-03T04:49:16.943Z,11.00
2018-07-03T04:49:52.421Z,11.00
2018-07-03T04:50:27.748Z,11.00
2018-07-03T04:51:03.232Z,11.00
2018-07-03T04:51:38.436Z,11.00
2018-07-03T04:52:13.780Z,11.00
2018-07-03T04:52:49.202Z,11.00
2018-07-03T04:53:24.502Z,11.00
2018-07-03T04:54:00.255Z,11.00
2018-07-03T04:54:35.728Z,11.00
2018-07-03T04:55:11.036Z,11.00
2018-07-03T04:55:46.931Z,11.00
2018-07-03T04:56:22.150Z,11.00
2018-07-03T04:56:57.418Z,11.00
2018-07-03T04:57:32.708Z,11.00
2018-07-03T04:58:08.132Z,11.00
2018-07-03T04:58:43.266Z,11.00
2018-07-03T04:59:18.706Z,11.00
2018-07-03T04:59:54.749Z,11.00
2018-07-03T05:00:30.064Z,11.00
2018-07-03T05:01:05.449Z,11.00
2018-07-03T05:01:40.807Z,11.00
2018-07-03T05:02:16.138Z,11.00
2018-07-03T05:02:51.225Z,11.00
2018-07-03T05:03:26.744Z,11.00
2018-07-03T05:04:02.129Z,11.00
2018-07-03T05:04:37.726Z,16.00
2018-07-03T05:05:13.358Z,16.00
2018-07-03T05:05:48.751Z,16.00
2018-07-03T05:06:24.270Z,16.00
2018-07-03T05:06:59.698Z,16.00
2018-07-03T05:07:35.037Z,16.00
2018-07-03T05:08:10.335Z,16.00
2018-07-03T05:08:47.304Z,16.00
2018-07-03T05:09:23.408Z,16.00
2018-07-03T05:09:58.651Z,16.00
2018-07-03T05:10:34.183Z,16.00
2018-07-03T05:11:09.593Z,16.00
2018-07-03T05:11:44.927Z,16.00
2018-07-03T05:12:20.380Z,16.00
2018-07-03T05:12:55.602Z,16.00
2018-07-03T05:13:31.128Z,16.00
2018-07-03T05:14:06.618Z,16.00
2018-07-03T05:14:43.140Z,16.00
2018-07-03T05:15:18.780Z,16.00
2018-07-03T05:15:53.907Z,16.00
2018-07-03T05:16:29.410Z,16.00
2018-07-03T05:17:04.906Z,16.00
2018-07-03T05:17:40.322Z,16.00
2018-07-03T05:18:15.553Z,22.00
2018-07-03T05:18:50.766Z,22.00
2018-07-03T05:19:26.304Z,22.00
2018-07-03T05:20:01.633Z,22.00
2018-07-03T05:20:36.736Z,22.00
2018-07-03T05:21:12.192Z,22.00
2018-07-03T05:21:47.339Z,22.00
2018-07-03T05:22:22.944Z,22.00
2018-07-03T05:22:58.234Z,22.00
2018-07-03T05:23:33.577Z,22.00
2018-07-03T05:24:08.779Z,22.00
2018-07-03T05:24:44.798Z,22.00
2018-07-03T05:25:20.074Z,22.00
2018-07-03T05:25:55.068Z,22.00
2018-07-03T05:26:30.521Z,22.00
2018-07-03T05:27:06.060Z,22.00
2018-07-03T05:27:41.405Z,22.00
2018-07-03T05:28:16.727Z,22.00
2018-07-03T05:28:52.037Z,22.00
2018-07-03T05:29:27.267Z,22.00
2018-07-03T05:30:02.705Z,22.00
2018-07-03T05:30:38.123Z,22.00
2018-07-03T05:31:13.724Z,22.00
2018-07-03T05:33:50.886Z,22.00
2018-07-03T05:34:26.305Z,22.00
2018-07-03T05:35:03.233Z,22.00
2018-07-03T05:35:39.227Z,22.00
2018-07-03T05:36:14.966Z,22.00
2018-07-03T05:36:50.302Z,22.00
2018-07-03T05:37:25.430Z,22.00
2018-07-03T05:38:00.832Z,28.00
2018-07-03T05:38:36.335Z,28.00
2018-07-03T05:39:11.525Z,28.00
2018-07-03T05:39:47.534Z,28.00
2018-07-03T05:40:23.043Z,28.00
2018-07-03T05:40:58.556Z,28.00
2018-07-03T05:41:33.787Z,33.00
2018-07-03T05:42:09.194Z,28.00
2018-07-03T05:42:44.690Z,28.00
2018-07-03T05:43:19.799Z,28.00
2018-07-03T05:43:54.775Z,33.00
2018-07-03T05:44:30.300Z,33.00
2018-07-03T05:45:05.699Z,33.00
2018-07-03T05:45:41.007Z,33.00
2018-07-03T05:46:16.516Z,33.00
2018-07-03T05:46:51.831Z,33.00
2018-07-03T05:47:27.480Z,33.00
2018-07-03T05:48:02.765Z,33.00
2018-07-03T05:48:38.192Z,33.00
2018-07-03T05:49:13.503Z,33.00
2018-07-03T05:49:49.128Z,33.00
2018-07-03T05:50:24.861Z,33.00
2018-07-03T05:51:01.284Z,33.00
2018-07-03T05:51:36.523Z,33.00
2018-07-03T05:52:12.011Z,39.00
2018-07-03T05:52:47.365Z,39.00
2018-07-03T05:53:22.752Z,39.00
2018-07-03T05:53:58.057Z,39.00
2018-07-03T05:54:33.251Z,39.00
2018-07-03T05:55:08.856Z,33.00
2018-07-03T05:55:44.259Z,39.00
2018-07-03T05:56:19.582Z,45.00
2018-07-03T05:56:54.864Z,45.00
2018-07-03T05:57:30.582Z,45.00
2018-07-03T05:58:06.015Z,45.00
2018-07-03T05:58:41.851Z,45.00
2018-07-03T05:59:17.345Z,45.00
2018-07-03T05:59:52.985Z,50.00
2018-07-03T06:02:30.455Z,50.00
2018-07-03T06:03:05.683Z,50.00
2018-07-03T06:03:40.965Z,50.00
2018-07-03T06:04:16.660Z,50.00
2018-07-03T06:04:52.066Z,50.00
2018-07-03T06:05:27.472Z,50.00
2018-07-03T06:06:02.846Z,50.00
2018-07-03T06:06:38.861Z,50.00
2018-07-03T06:07:14.074Z,50.00
2018-07-03T06:07:49.374Z,50.00
2018-07-03T06:08:24.723Z,56.00
2018-07-03T06:08:59.913Z,56.00
2018-07-03T06:09:35.384Z,56.00
2018-07-03T06:10:10.523Z,56.00
2018-07-03T06:10:47.120Z,56.00
2018-07-03T06:11:22.545Z,56.00
2018-07-03T06:11:58.365Z,56.00
2018-07-03T06:12:33.573Z,56.00
2018-07-03T06:13:08.918Z,61.00
2018-07-03T06:13:44.751Z,61.00
2018-07-03T06:14:20.186Z,61.00
2018-07-03T06:14:55.796Z,61.00
2018-07-03T06:15:31.393Z,61.00
2018-07-03T06:16:06.745Z,61.00
2018-07-03T06:16:42.113Z,61.00
2018-07-03T06:17:17.654Z,61.00
2018-07-03T06:17:53.524Z,61.00
2018-07-03T06:18:28.989Z,73.00
2018-07-03T06:19:04.282Z,73.00
2018-07-03T06:19:39.822Z,67.00
2018-07-03T06:20:15.246Z,67.00
2018-07-03T06:20:50.546Z,67.00
2018-07-03T06:21:26.174Z,73.00
2018-07-03T06:22:01.981Z,73.00
2018-07-03T06:22:37.473Z,73.00
2018-07-03T06:23:12.809Z,73.00
2018-07-03T06:23:47.954Z,73.00
2018-07-03T06:24:25.673Z,73.00
2018-07-03T06:27:39.903Z,78.00
2018-07-03T06:28:21.029Z,78.00
2018-07-03T06:29:02.937Z,84.00
2018-07-03T06:29:40.990Z,84.00
2018-07-03T06:30:18.392Z,84.00
2018-07-03T06:30:56.099Z,84.00
2018-07-03T06:31:37.675Z,90.00
2018-07-03T06:32:12.759Z,90.00
2018-07-03T06:34:49.844Z,95.00
2018-07-03T06:35:28.485Z,95.00
2018-07-03T06:36:03.443Z,95.00
2018-07-03T06:36:41.975Z,95.00
2018-07-03T06:39:56.328Z,101.00
2018-07-03T06:40:34.747Z,101.00
2018-07-03T06:41:10.392Z,101.00
2018-07-03T06:41:52.005Z,101.00
2018-07-03T06:42:30.103Z,101.00
2018-07-03T06:45:08.325Z,106.00
2018-07-03T06:45:49.932Z,106.00
2018-07-03T06:46:28.358Z,106.00
2018-07-03T06:49:42.965Z,106.00
2018-07-03T06:52:58.222Z,106.00
2018-07-03T06:53:39.874Z,106.00
2018-07-03T06:54:17.750Z,106.00
2018-07-03T06:54:59.262Z,112.00
2018-07-03T06:58:13.689Z,112.00
2018-07-03T06:58:56.089Z,112.00
2018-07-03T06:59:35.413Z,112.00
2018-07-03T07:00:10.763Z,112.00
2018-07-03T07:00:51.038Z,112.00
2018-07-03T07:01:28.862Z,112.00
2018-07-03T07:02:04.184Z,118.00
2018-07-03T07:02:39.682Z,118.00
2018-07-03T07:03:16.161Z,118.00
2018-07-03T07:03:53.372Z,118.00
2018-07-03T07:04:30.146Z,123.00
2018-07-03T07:05:09.554Z,118.00
2018-07-03T07:05:48.406Z,118.00
2018-07-03T07:06:24.594Z,118.00
2018-07-03T07:07:03.158Z,118.00
2018-07-03T07:10:17.825Z,123.00
2018-07-03T07:10:54.162Z,123.00
2018-07-03T07:11:33.630Z,123.00
2018-07-03T07:12:12.312Z,123.00
2018-07-03T07:12:51.730Z,123.00
2018-07-03T07:13:30.617Z,123.00
2018-07-03T07:14:09.619Z,129.00
2018-07-03T07:17:24.117Z,129.00
2018-07-03T07:18:00.427Z,129.00
2018-07-03T07:18:35.730Z,135.00
2018-07-03T07:19:12.936Z,135.00
2018-07-03T07:19:54.366Z,135.00
2018-07-03T07:20:34.473Z,135.00
2018-07-03T07:23:48.969Z,140.00
2018-07-03T07:24:24.399Z,140.00
2018-07-03T07:27:38.875Z,151.00
2018-07-03T07:30:53.456Z,157.00
2018-07-03T07:31:31.577Z,157.00
2018-07-03T07:32:09.915Z,157.00
2018-07-03T07:34:49.110Z,168.00
2018-07-03T07:38:03.477Z,180.00
2018-07-03T07:38:42.295Z,174.00
2018-07-03T07:39:23.135Z,174.00
2018-07-03T07:40:04.930Z,174.00
2018-07-03T07:40:46.961Z,174.00
2018-07-03T07:41:27.279Z,180.00
2018-07-03T07:42:08.902Z,185.00
2018-07-03T07:42:50.115Z,180.00
2018-07-03T07:43:28.550Z,180.00
2018-07-03T07:44:04.077Z,180.00
2018-07-03T07:47:18.532Z,185.00
2018-07-03T07:47:55.855Z,185.00
2018-07-03T07:48:33.834Z,196.00
2018-07-03T07:51:48.133Z,208.00
2018-07-03T07:52:29.534Z,219.00
2018-07-03T07:53:04.859Z,241.00
2018-07-03T07:53:43.438Z,371.00
2018-07-03T07:54:26.652Z,1248.00
2018-07-03T07:55:07.644Z,2373.00
2018-07-03T07:55:48.036Z,3065.00
2018-07-03T07:56:26.894Z,3031.00
2018-07-03T07:59:41.333Z,3099.00
2018-07-03T08:00:18.296Z,3037.00
2018-07-03T08:00:57.833Z,2970.00
2018-07-03T08:01:40.248Z,2947.00
2018-07-03T08:02:17.281Z,2958.00
2018-07-03T08:02:58.079Z,2604.00
2018-07-03T08:03:36.905Z,1856.00
2018-07-03T08:04:13.963Z,1012.00
2018-07-03T08:04:53.283Z,416.00
2018-07-03T08:05:29.822Z,292.00
2018-07-03T08:06:07.465Z,264.00
2018-07-03T08:06:43.072Z,253.00
2018-07-03T08:07:18.583Z,241.00
2018-07-03T08:07:55.311Z,236.00
2018-07-03T08:08:31.066Z,230.00
2018-07-03T08:09:09.431Z,230.00
2018-07-03T08:09:45.132Z,230.00
2018-07-03T08:10:20.439Z,253.00
2018-07-03T08:10:56.449Z,360.00
2018-07-03T08:14:11.870Z,843.00
2018-07-03T08:14:47.197Z,815.00
2018-07-03T08:15:22.398Z,776.00
2018-07-03T08:16:02.683Z,770.00
2018-07-03T08:16:38.003Z,765.00
2018-07-03T08:17:13.242Z,742.00
2018-07-03T08:17:48.514Z,714.00
2018-07-03T08:18:24.223Z,714.00
2018-07-03T08:18:59.429Z,753.00
2018-07-03T08:19:35.072Z,781.00
2018-07-03T08:20:10.473Z,781.00
2018-07-03T08:20:48.790Z,776.00
2018-07-03T08:21:24.241Z,759.00
2018-07-03T08:21:59.335Z,770.00
2018-07-03T08:22:34.584Z,765.00
2018-07-03T08:23:09.999Z,753.00
2018-07-03T08:23:45.505Z,720.00
2018-07-03T08:24:20.822Z,697.00
2018-07-03T08:24:56.131Z,708.00
2018-07-03T08:25:31.456Z,736.00
2018-07-03T08:26:06.778Z,770.00
2018-07-03T08:26:42.904Z,798.00
2018-07-03T08:27:18.199Z,793.00
2018-07-03T08:27:53.412Z,776.00
2018-07-03T08:28:28.863Z,770.00
2018-07-03T08:29:04.882Z,759.00
2018-07-03T08:29:40.211Z,742.00
2018-07-03T08:30:15.572Z,725.00
2018-07-03T08:30:52.169Z,731.00
2018-07-03T08:31:27.698Z,731.00
2018-07-03T08:32:03.103Z,736.00
2018-07-03T08:32:38.753Z,742.00
2018-07-03T08:33:14.214Z,714.00
2018-07-03T08:33:49.551Z,680.00
2018-07-03T08:34:24.861Z,652.00
2018-07-03T08:35:00.283Z,646.00
2018-07-03T08:35:39.061Z,675.00
2018-07-03T08:36:16.919Z,725.00
2018-07-03T08:36:54.119Z,753.00
2018-07-03T08:37:29.671Z,759.00
2018-07-03T08:38:04.914Z,748.00
2018-07-03T08:38:40.147Z,748.00
2018-07-03T08:39:15.592Z,765.00
2018-07-03T08:39:53.906Z,765.00
2018-07-03T08:40:29.057Z,742.00
2018-07-03T08:41:08.533Z,708.00
2018-07-03T08:41:45.759Z,686.00
2018-07-03T08:42:21.308Z,663.00
2018-07-03T08:42:57.057Z,652.00
2018-07-03T08:43:32.242Z,658.00
2018-07-03T08:44:07.578Z,652.00
2018-07-03T08:44:43.010Z,663.00
2018-07-03T08:45:18.250Z,675.00
2018-07-03T08:45:53.466Z,675.00
2018-07-03T08:46:30.052Z,680.00
2018-07-03T08:47:05.272Z,680.00
2018-07-03T08:47:44.502Z,691.00
2018-07-03T08:50:24.311Z,646.00